Ana Sayfa
METAR-TAF:

METAR-TAF

Havaalanları :

Şırnak Şerafettin Elçi Havalimanı

Şırnak, Türkiye

Enlem: 37-21-50N, Boylam: 42-03-36E, yükseklik: 621 m

Güncel hava durumu gözlemi

Rapor saat 16:50 UTC de 8 saat ve 14 dakika önce yapıldı.
Rüzgar batı/kuzeybatıdan 17 kt
Sıcaklık 10°C
Nem 50%
Basınç 1007 hPa
Görüş mesafesi 10 km veya daha fazla
3500 ft yükseklikte az bulutlu

METAR: LTCV 251650Z 29017KT 9999 FEW035 10/00 Q1007

Saat: 04:04 (01:04 UTC)

Tahmin

Rapor saat 13:40 UTC de 11 saat ve 24 dakika önce yapıldı.
Ayın 25'si saat 15 UTC'den ayın 25'si saat 24 UTC'ye kadar geçerli Tahmin
Rüzgar kuzeybatıdan 8 kt
Görüş mesafesi 10 km veya daha fazla
4000 ft yükseklikte parçalı bulutlu
Dönüşüyor
ayın 25'si saat 15 UTC'den ayın 25'si saat 18 UTC'ye kadar
Görüş mesafesi 10 km veya daha fazla
1500 m altında bulut yok ve kümülonimbus yok

TAF: LTCV 251340Z 2515/2524 31008KT 9999 SCT040 BECMG 2515/2518 CAVOK

4.000'den fazla havaalanı için hava durumu gözlemleri ve tahminleri (METAR ve TAF raporları).

Kullanılabilir istasyonlar harita üzerinde sarı ve kırmızı noktalarla gösterilir.

İstasyonun adını görmek için fareyi noktanın üzerinde gezdirin.

Sonrasında hava gözlem ve tahminlerini görmek için tıklayın.

Haritayı değiştirmek için: yaklaştırmak için siyah artı işaretli yeşil düğmeye ve uzaklaştırmak için de eksi işaretli düğmeye hızla tıklayın; bitişik haritalar için yeşil okları kullanın.


METAR-TAF: